sensor_id;sensor_type;location;lat;lon;timestamp;P1;durP1;ratioP1;P2;durP2;ratioP2
19280;SDS011;9774;52.034;5.342;2023-04-24T00:01:33;1.17;;;0.70;;
19280;SDS011;9774;52.034;5.342;2023-04-24T00:04:03;0.77;;;0.60;;
19280;SDS011;9774;52.034;5.342;2023-04-24T00:06:31;0.77;;;0.77;;
19280;SDS011;9774;52.034;5.342;2023-04-24T00:08:59;1.02;;;0.88;;
19280;SDS011;9774;52.034;5.342;2023-04-24T00:11:26;2.17;;;0.82;;
19280;SDS011;9774;52.034;5.342;2023-04-24T00:13:54;0.90;;;0.63;;
19280;SDS011;9774;52.034;5.342;2023-04-24T00:16:21;1.58;;;0.60;;
19280;SDS011;9774;52.034;5.342;2023-04-24T00:18:48;1.13;;;0.63;;
19280;SDS011;9774;52.034;5.342;2023-04-24T00:21:19;0.80;;;0.52;;
19280;SDS011;9774;52.034;5.342;2023-04-24T00:23:46;0.73;;;0.45;;
19280;SDS011;9774;52.034;5.342;2023-04-24T00:26:14;1.05;;;0.50;;
19280;SDS011;9774;52.034;5.342;2023-04-24T00:28:41;1.27;;;0.65;;
19280;SDS011;9774;52.034;5.342;2023-04-24T00:31:08;1.42;;;0.50;;
19280;SDS011;9774;52.034;5.342;2023-04-24T00:33:35;1.20;;;0.77;;
19280;SDS011;9774;52.034;5.342;2023-04-24T00:36:03;0.68;;;0.68;;
19280;SDS011;9774;52.034;5.342;2023-04-24T00:38:32;0.80;;;0.55;;
19280;SDS011;9774;52.034;5.342;2023-04-24T00:40:59;0.73;;;0.60;;
19280;SDS011;9774;52.034;5.342;2023-04-24T00:43:26;0.88;;;0.75;;
19280;SDS011;9774;52.034;5.342;2023-04-24T00:45:54;0.80;;;0.73;;
19280;SDS011;9774;52.034;5.342;2023-04-24T00:48:21;1.05;;;0.63;;
19280;SDS011;9774;52.034;5.342;2023-04-24T00:50:50;0.82;;;0.50;;
19280;SDS011;9774;52.034;5.342;2023-04-24T00:53:18;0.82;;;0.65;;
19280;SDS011;9774;52.034;5.342;2023-04-24T00:55:47;0.65;;;0.65;;
19280;SDS011;9774;52.034;5.342;2023-04-24T00:58:14;1.73;;;0.80;;
19280;SDS011;9774;52.034;5.342;2023-04-24T01:00:41;1.20;;;0.82;;
19280;SDS011;9774;52.034;5.342;2023-04-24T01:03:10;0.82;;;0.73;;
19280;SDS011;9774;52.034;5.342;2023-04-24T01:05:38;1.90;;;1.00;;
19280;SDS011;9774;52.034;5.342;2023-04-24T01:08:05;1.13;;;0.75;;
19280;SDS011;9774;52.034;5.342;2023-04-24T01:10:33;1.55;;;0.90;;
19280;SDS011;9774;52.034;5.342;2023-04-24T01:13:04;1.17;;;1.08;;
19280;SDS011;9774;52.034;5.342;2023-04-24T01:15:31;1.30;;;1.00;;
19280;SDS011;9774;52.034;5.342;2023-04-24T01:17:58;1.98;;;1.02;;
19280;SDS011;9774;52.034;5.342;2023-04-24T01:20:25;1.67;;;0.95;;
19280;SDS011;9774;52.034;5.342;2023-04-24T01:22:55;1.92;;;1.02;;
19280;SDS011;9774;52.034;5.342;2023-04-24T01:25:22;1.05;;;0.95;;
19280;SDS011;9774;52.034;5.342;2023-04-24T01:27:51;1.30;;;0.88;;
19280;SDS011;9774;52.034;5.342;2023-04-24T01:30:19;1.20;;;0.95;;
19280;SDS011;9774;52.034;5.342;2023-04-24T01:32:46;0.90;;;0.80;;
19280;SDS011;9774;52.034;5.342;2023-04-24T01:35:14;1.38;;;0.77;;
19280;SDS011;9774;52.034;5.342;2023-04-24T01:37:41;1.02;;;0.90;;
19280;SDS011;9774;52.034;5.342;2023-04-24T01:40:11;0.95;;;0.85;;
19280;SDS011;9774;52.034;5.342;2023-04-24T01:42:39;0.80;;;0.70;;
19280;SDS011;9774;52.034;5.342;2023-04-24T01:45:09;0.77;;;0.70;;
19280;SDS011;9774;52.034;5.342;2023-04-24T01:47:37;1.05;;;0.80;;
19280;SDS011;9774;52.034;5.342;2023-04-24T01:50:06;1.05;;;0.93;;
19280;SDS011;9774;52.034;5.342;2023-04-24T01:52:34;3.42;;;1.00;;
19280;SDS011;9774;52.034;5.342;2023-04-24T01:55:01;1.20;;;1.10;;
19280;SDS011;9774;52.034;5.342;2023-04-24T01:57:30;1.30;;;1.20;;
19280;SDS011;9774;52.034;5.342;2023-04-24T01:59:58;1.52;;;0.85;;
19280;SDS011;9774;52.034;5.342;2023-04-24T02:02:26;2.17;;;1.13;;
19280;SDS011;9774;52.034;5.342;2023-04-24T02:04:54;1.30;;;1.17;;
19280;SDS011;9774;52.034;5.342;2023-04-24T02:07:21;1.33;;;1.10;;
19280;SDS011;9774;52.034;5.342;2023-04-24T02:09:49;2.33;;;1.02;;
19280;SDS011;9774;52.034;5.342;2023-04-24T02:12:16;1.50;;;1.08;;
19280;SDS011;9774;52.034;5.342;2023-04-24T02:14:45;1.67;;;1.50;;
19280;SDS011;9774;52.034;5.342;2023-04-24T02:17:12;1.15;;;1.05;;
19280;SDS011;9774;52.034;5.342;2023-04-24T02:19:41;1.30;;;1.20;;
19280;SDS011;9774;52.034;5.342;2023-04-24T02:22:08;0.85;;;0.85;;
19280;SDS011;9774;52.034;5.342;2023-04-24T02:24:35;1.48;;;1.17;;
19280;SDS011;9774;52.034;5.342;2023-04-24T02:27:03;1.23;;;0.75;;
19280;SDS011;9774;52.034;5.342;2023-04-24T02:29:30;1.10;;;1.00;;
19280;SDS011;9774;52.034;5.342;2023-04-24T02:31:59;1.10;;;0.95;;
19280;SDS011;9774;52.034;5.342;2023-04-24T02:34:26;1.40;;;1.00;;
19280;SDS011;9774;52.034;5.342;2023-04-24T02:36:54;1.45;;;1.10;;
19280;SDS011;9774;52.034;5.342;2023-04-24T02:39:21;0.75;;;0.73;;
19280;SDS011;9774;52.034;5.342;2023-04-24T02:41:48;1.42;;;0.80;;
19280;SDS011;9774;52.034;5.342;2023-04-24T02:44:16;1.13;;;0.98;;
19280;SDS011;9774;52.034;5.342;2023-04-24T02:46:43;1.13;;;0.95;;
19280;SDS011;9774;52.034;5.342;2023-04-24T02:49:12;1.17;;;1.05;;
19280;SDS011;9774;52.034;5.342;2023-04-24T02:51:39;1.50;;;1.40;;
19280;SDS011;9774;52.034;5.342;2023-04-24T02:54:06;1.48;;;1.25;;
19280;SDS011;9774;52.034;5.342;2023-04-24T02:56:35;2.42;;;1.52;;
19280;SDS011;9774;52.034;5.342;2023-04-24T02:59:02;2.00;;;1.58;;
19280;SDS011;9774;52.034;5.342;2023-04-24T03:01:29;1.60;;;1.08;;
19280;SDS011;9774;52.034;5.342;2023-04-24T03:03:57;2.10;;;1.10;;
19280;SDS011;9774;52.034;5.342;2023-04-24T03:06:25;2.70;;;1.00;;
19280;SDS011;9774;52.034;5.342;2023-04-24T03:08:53;0.90;;;0.80;;
19280;SDS011;9774;52.034;5.342;2023-04-24T03:11:20;1.20;;;0.90;;
19280;SDS011;9774;52.034;5.342;2023-04-24T03:13:48;0.95;;;0.90;;
19280;SDS011;9774;52.034;5.342;2023-04-24T03:16:15;1.92;;;1.00;;
19280;SDS011;9774;52.034;5.342;2023-04-24T03:18:42;1.25;;;0.90;;
19280;SDS011;9774;52.034;5.342;2023-04-24T03:21:09;1.00;;;0.90;;
19280;SDS011;9774;52.034;5.342;2023-04-24T03:23:39;0.80;;;0.70;;
19280;SDS011;9774;52.034;5.342;2023-04-24T03:26:06;0.75;;;0.60;;
19280;SDS011;9774;52.034;5.342;2023-04-24T03:28:33;0.82;;;0.68;;
19280;SDS011;9774;52.034;5.342;2023-04-24T03:31:00;0.80;;;0.40;;
19280;SDS011;9774;52.034;5.342;2023-04-24T03:33:29;0.40;;;0.38;;
19280;SDS011;9774;52.034;5.342;2023-04-24T03:35:56;0.60;;;0.40;;
19280;SDS011;9774;52.034;5.342;2023-04-24T03:38:24;0.20;;;0.10;;
19280;SDS011;9774;52.034;5.342;2023-04-24T03:40:53;0.50;;;0.20;;
19280;SDS011;9774;52.034;5.342;2023-04-24T03:43:20;0.38;;;0.28;;
19280;SDS011;9774;52.034;5.342;2023-04-24T03:45:47;0.82;;;0.25;;
19280;SDS011;9774;52.034;5.342;2023-04-24T03:48:15;0.40;;;0.13;;
19280;SDS011;9774;52.034;5.342;2023-04-24T03:50:42;0.80;;;0.40;;
19280;SDS011;9774;52.034;5.342;2023-04-24T03:53:10;1.00;;;0.45;;
19280;SDS011;9774;52.034;5.342;2023-04-24T03:55:37;0.50;;;0.40;;
19280;SDS011;9774;52.034;5.342;2023-04-24T03:58:06;0.55;;;0.50;;
19280;SDS011;9774;52.034;5.342;2023-04-24T04:00:33;0.80;;;0.80;;
19280;SDS011;9774;52.034;5.342;2023-04-24T04:03:02;0.75;;;0.50;;
19280;SDS011;9774;52.034;5.342;2023-04-24T04:05:29;0.95;;;0.75;;
19280;SDS011;9774;52.034;5.342;2023-04-24T04:07:57;0.90;;;0.80;;
19280;SDS011;9774;52.034;5.342;2023-04-24T04:10:24;0.75;;;0.75;;
19280;SDS011;9774;52.034;5.342;2023-04-24T04:12:51;0.93;;;0.85;;
19280;SDS011;9774;52.034;5.342;2023-04-24T04:15:20;1.40;;;1.08;;
19280;SDS011;9774;52.034;5.342;2023-04-24T04:17:47;3.55;;;1.38;;
19280;SDS011;9774;52.034;5.342;2023-04-24T04:20:14;1.30;;;1.20;;
19280;SDS011;9774;52.034;5.342;2023-04-24T04:22:42;2.92;;;1.50;;
19280;SDS011;9774;52.034;5.342;2023-04-24T04:25:09;1.73;;;1.15;;
19280;SDS011;9774;52.034;5.342;2023-04-24T04:27:38;2.00;;;1.02;;
19280;SDS011;9774;52.034;5.342;2023-04-24T04:30:07;1.15;;;1.05;;
19280;SDS011;9774;52.034;5.342;2023-04-24T04:32:36;1.30;;;1.20;;
19280;SDS011;9774;52.034;5.342;2023-04-24T04:35:04;1.15;;;1.00;;
19280;SDS011;9774;52.034;5.342;2023-04-24T04:37:32;1.40;;;1.17;;
19280;SDS011;9774;52.034;5.342;2023-04-24T04:40:00;1.65;;;1.30;;
19280;SDS011;9774;52.034;5.342;2023-04-24T04:42:31;1.27;;;1.00;;
19280;SDS011;9774;52.034;5.342;2023-04-24T04:44:59;1.65;;;1.15;;
19280;SDS011;9774;52.034;5.342;2023-04-24T04:47:27;1.13;;;1.02;;
19280;SDS011;9774;52.034;5.342;2023-04-24T04:49:58;1.80;;;1.27;;
19280;SDS011;9774;52.034;5.342;2023-04-24T04:52:25;2.28;;;1.10;;
19280;SDS011;9774;52.034;5.342;2023-04-24T04:54:52;1.30;;;0.90;;
19280;SDS011;9774;52.034;5.342;2023-04-24T04:57:20;1.23;;;1.00;;
19280;SDS011;9774;52.034;5.342;2023-04-24T04:59:47;1.42;;;1.10;;
19280;SDS011;9774;52.034;5.342;2023-04-24T05:02:14;1.35;;;1.20;;
19280;SDS011;9774;52.034;5.342;2023-04-24T05:04:42;1.40;;;1.05;;
19280;SDS011;9774;52.034;5.342;2023-04-24T05:07:11;1.73;;;0.80;;
19280;SDS011;9774;52.034;5.342;2023-04-24T05:09:38;1.45;;;0.98;;
19280;SDS011;9774;52.034;5.342;2023-04-24T05:12:06;1.50;;;1.25;;
19280;SDS011;9774;52.034;5.342;2023-04-24T05:14:33;2.05;;;1.08;;
19280;SDS011;9774;52.034;5.342;2023-04-24T05:17:00;1.30;;;0.90;;
19280;SDS011;9774;52.034;5.342;2023-04-24T05:19:27;0.98;;;0.82;;
19280;SDS011;9774;52.034;5.342;2023-04-24T05:21:58;1.13;;;0.80;;
19280;SDS011;9774;52.034;5.342;2023-04-24T05:24:29;1.10;;;1.00;;
19280;SDS011;9774;52.034;5.342;2023-04-24T05:26:56;1.65;;;1.00;;
19280;SDS011;9774;52.034;5.342;2023-04-24T05:29:24;0.93;;;0.82;;
19280;SDS011;9774;52.034;5.342;2023-04-24T05:31:52;2.22;;;1.15;;
19280;SDS011;9774;52.034;5.342;2023-04-24T05:34:19;3.13;;;1.20;;
19280;SDS011;9774;52.034;5.342;2023-04-24T05:36:47;1.98;;;0.95;;
19280;SDS011;9774;52.034;5.342;2023-04-24T05:39:15;1.35;;;0.95;;
19280;SDS011;9774;52.034;5.342;2023-04-24T05:41:44;1.13;;;1.00;;
19280;SDS011;9774;52.034;5.342;2023-04-24T05:44:11;1.27;;;1.10;;
19280;SDS011;9774;52.034;5.342;2023-04-24T05:46:39;1.30;;;1.00;;
19280;SDS011;9774;52.034;5.342;2023-04-24T05:49:06;1.13;;;1.02;;
19280;SDS011;9774;52.034;5.342;2023-04-24T05:51:33;1.20;;;1.05;;
19280;SDS011;9774;52.034;5.342;2023-04-24T05:54:00;2.50;;;1.40;;
19280;SDS011;9774;52.034;5.342;2023-04-24T05:56:28;2.45;;;1.30;;
19280;SDS011;9774;52.034;5.342;2023-04-24T05:58:57;1.65;;;1.30;;
19280;SDS011;9774;52.034;5.342;2023-04-24T06:01:24;1.88;;;1.20;;
19280;SDS011;9774;52.034;5.342;2023-04-24T06:03:52;1.00;;;0.77;;
19280;SDS011;9774;52.034;5.342;2023-04-24T06:06:19;1.35;;;0.80;;
19280;SDS011;9774;52.034;5.342;2023-04-24T06:08:46;1.05;;;0.68;;
19280;SDS011;9774;52.034;5.342;2023-04-24T06:11:14;1.05;;;0.60;;
19280;SDS011;9774;52.034;5.342;2023-04-24T06:13:41;0.70;;;0.45;;
19280;SDS011;9774;52.034;5.342;2023-04-24T06:16:10;0.50;;;0.32;;
19280;SDS011;9774;52.034;5.342;2023-04-24T06:18:38;1.13;;;0.32;;
19280;SDS011;9774;52.034;5.342;2023-04-24T06:21:05;0.60;;;0.38;;
19280;SDS011;9774;52.034;5.342;2023-04-24T06:23:32;0.45;;;0.30;;
19280;SDS011;9774;52.034;5.342;2023-04-24T06:26:00;0.40;;;0.40;;
19280;SDS011;9774;52.034;5.342;2023-04-24T06:28:27;0.40;;;0.20;;
19280;SDS011;9774;52.034;5.342;2023-04-24T06:30:55;0.68;;;0.40;;
19280;SDS011;9774;52.034;5.342;2023-04-24T06:33:23;0.50;;;0.40;;
19280;SDS011;9774;52.034;5.342;2023-04-24T06:35:50;0.43;;;0.30;;
19280;SDS011;9774;52.034;5.342;2023-04-24T06:38:18;0.40;;;0.30;;
19280;SDS011;9774;52.034;5.342;2023-04-24T06:40:45;0.55;;;0.40;;
19280;SDS011;9774;52.034;5.342;2023-04-24T06:43:12;0.80;;;0.50;;
19280;SDS011;9774;52.034;5.342;2023-04-24T06:45:40;2.15;;;0.70;;
19280;SDS011;9774;52.034;5.342;2023-04-24T06:48:08;2.83;;;1.40;;
19280;SDS011;9774;52.034;5.342;2023-04-24T06:50:38;2.13;;;1.75;;
19280;SDS011;9774;52.034;5.342;2023-04-24T06:53:05;2.38;;;1.90;;
19280;SDS011;9774;52.034;5.342;2023-04-24T06:55:33;3.45;;;2.05;;
19280;SDS011;9774;52.034;5.342;2023-04-24T06:58:01;4.97;;;2.80;;
19280;SDS011;9774;52.034;5.342;2023-04-24T07:00:29;4.35;;;3.10;;
19280;SDS011;9774;52.034;5.342;2023-04-24T07:02:56;4.10;;;3.00;;
19280;SDS011;9774;52.034;5.342;2023-04-24T07:05:23;5.20;;;3.35;;
19280;SDS011;9774;52.034;5.342;2023-04-24T07:07:52;6.03;;;3.40;;
19280;SDS011;9774;52.034;5.342;2023-04-24T07:10:19;5.05;;;4.00;;
19280;SDS011;9774;52.034;5.342;2023-04-24T07:12:48;6.32;;;4.28;;
19280;SDS011;9774;52.034;5.342;2023-04-24T07:15:15;6.90;;;3.75;;
19280;SDS011;9774;52.034;5.342;2023-04-24T07:17:42;5.78;;;4.15;;
19280;SDS011;9774;52.034;5.342;2023-04-24T07:20:10;7.22;;;4.38;;
19280;SDS011;9774;52.034;5.342;2023-04-24T07:22:39;5.70;;;4.15;;
19280;SDS011;9774;52.034;5.342;2023-04-24T07:25:08;6.72;;;4.38;;
19280;SDS011;9774;52.034;5.342;2023-04-24T07:27:36;6.22;;;4.18;;
19280;SDS011;9774;52.034;5.342;2023-04-24T07:30:03;6.50;;;4.22;;
19280;SDS011;9774;52.034;5.342;2023-04-24T07:32:32;6.97;;;4.78;;
19280;SDS011;9774;52.034;5.342;2023-04-24T07:35:00;6.47;;;4.10;;
19280;SDS011;9774;52.034;5.342;2023-04-24T07:37:27;4.90;;;3.60;;
19280;SDS011;9774;52.034;5.342;2023-04-24T07:39:55;10.23;;;4.40;;
19280;SDS011;9774;52.034;5.342;2023-04-24T07:42:24;6.68;;;4.20;;
19280;SDS011;9774;52.034;5.342;2023-04-24T07:44:51;7.68;;;3.58;;
19280;SDS011;9774;52.034;5.342;2023-04-24T07:47:18;5.00;;;3.42;;
19280;SDS011;9774;52.034;5.342;2023-04-24T07:49:46;9.98;;;4.43;;
19280;SDS011;9774;52.034;5.342;2023-04-24T07:52:13;8.43;;;4.13;;
19280;SDS011;9774;52.034;5.342;2023-04-24T07:54:40;4.70;;;3.80;;
19280;SDS011;9774;52.034;5.342;2023-04-24T07:57:08;5.15;;;3.67;;
19280;SDS011;9774;52.034;5.342;2023-04-24T07:59:37;6.75;;;3.40;;
19280;SDS011;9774;52.034;5.342;2023-04-24T08:02:04;8.77;;;2.97;;
19280;SDS011;9774;52.034;5.342;2023-04-24T08:04:32;5.25;;;3.15;;
19280;SDS011;9774;52.034;5.342;2023-04-24T08:06:59;7.55;;;3.63;;
19280;SDS011;9774;52.034;5.342;2023-04-24T08:09:26;14.55;;;3.92;;
19280;SDS011;9774;52.034;5.342;2023-04-24T08:11:54;5.68;;;2.35;;
19280;SDS011;9774;52.034;5.342;2023-04-24T08:14:21;6.43;;;2.83;;
19280;SDS011;9774;52.034;5.342;2023-04-24T08:16:50;11.07;;;2.70;;
19280;SDS011;9774;52.034;5.342;2023-04-24T08:19:18;7.93;;;3.00;;
19280;SDS011;9774;52.034;5.342;2023-04-24T08:21:45;8.38;;;3.28;;
19280;SDS011;9774;52.034;5.342;2023-04-24T08:24:12;8.75;;;2.55;;
19280;SDS011;9774;52.034;5.342;2023-04-24T08:26:40;6.53;;;2.47;;
19280;SDS011;9774;52.034;5.342;2023-04-24T08:29:07;7.95;;;2.30;;
19280;SDS011;9774;52.034;5.342;2023-04-24T08:31:35;7.60;;;2.63;;
19280;SDS011;9774;52.034;5.342;2023-04-24T08:34:03;6.20;;;2.13;;
19280;SDS011;9774;52.034;5.342;2023-04-24T08:36:31;5.95;;;2.40;;
19280;SDS011;9774;52.034;5.342;2023-04-24T08:38:58;4.82;;;1.88;;
19280;SDS011;9774;52.034;5.342;2023-04-24T08:41:26;6.28;;;2.05;;
19280;SDS011;9774;52.034;5.342;2023-04-24T08:43:54;6.78;;;2.20;;
19280;SDS011;9774;52.034;5.342;2023-04-24T08:46:23;7.68;;;1.95;;
19280;SDS011;9774;52.034;5.342;2023-04-24T08:48:51;14.85;;;2.17;;
19280;SDS011;9774;52.034;5.342;2023-04-24T08:51:20;2.63;;;1.42;;
19280;SDS011;9774;52.034;5.342;2023-04-24T08:53:48;6.57;;;2.08;;
19280;SDS011;9774;52.034;5.342;2023-04-24T08:56:17;5.93;;;1.60;;
19280;SDS011;9774;52.034;5.342;2023-04-24T08:58:45;3.67;;;1.50;;
19280;SDS011;9774;52.034;5.342;2023-04-24T09:01:12;4.20;;;1.30;;
19280;SDS011;9774;52.034;5.342;2023-04-24T09:03:40;4.15;;;1.73;;
19280;SDS011;9774;52.034;5.342;2023-04-24T09:06:08;4.93;;;1.58;;
19280;SDS011;9774;52.034;5.342;2023-04-24T09:08:37;4.65;;;1.38;;
19280;SDS011;9774;52.034;5.342;2023-04-24T09:11:07;5.20;;;1.55;;
19280;SDS011;9774;52.034;5.342;2023-04-24T09:13:35;6.13;;;1.50;;
19280;SDS011;9774;52.034;5.342;2023-04-24T09:16:02;7.13;;;1.70;;
19280;SDS011;9774;52.034;5.342;2023-04-24T09:18:30;4.70;;;1.65;;
19280;SDS011;9774;52.034;5.342;2023-04-24T09:20:59;4.40;;;1.42;;
19280;SDS011;9774;52.034;5.342;2023-04-24T09:23:29;4.68;;;1.83;;
19280;SDS011;9774;52.034;5.342;2023-04-24T09:25:59;4.65;;;1.98;;
19280;SDS011;9774;52.034;5.342;2023-04-24T09:28:30;4.53;;;1.92;;
19280;SDS011;9774;52.034;5.342;2023-04-24T09:31:05;9.10;;;1.90;;
19280;SDS011;9774;52.034;5.342;2023-04-24T09:33:34;3.85;;;1.30;;
19280;SDS011;9774;52.034;5.342;2023-04-24T09:36:02;4.57;;;1.75;;
19280;SDS011;9774;52.034;5.342;2023-04-24T09:38:31;3.97;;;1.30;;
19280;SDS011;9774;52.034;5.342;2023-04-24T09:41:02;3.50;;;1.33;;
19280;SDS011;9774;52.034;5.342;2023-04-24T09:43:31;4.00;;;1.27;;
19280;SDS011;9774;52.034;5.342;2023-04-24T09:45:59;6.35;;;2.17;;
19280;SDS011;9774;52.034;5.342;2023-04-24T09:48:31;3.95;;;1.45;;
19280;SDS011;9774;52.034;5.342;2023-04-24T09:51:00;2.85;;;1.42;;
19280;SDS011;9774;52.034;5.342;2023-04-24T09:53:28;6.60;;;1.50;;
19280;SDS011;9774;52.034;5.342;2023-04-24T09:56:00;4.07;;;1.33;;
19280;SDS011;9774;52.034;5.342;2023-04-24T09:58:34;4.32;;;1.30;;
19280;SDS011;9774;52.034;5.342;2023-04-24T10:01:02;4.13;;;1.63;;
19280;SDS011;9774;52.034;5.342;2023-04-24T10:03:30;3.83;;;2.30;;
19280;SDS011;9774;52.034;5.342;2023-04-24T10:05:58;4.28;;;1.30;;
19280;SDS011;9774;52.034;5.342;2023-04-24T10:08:26;3.88;;;1.42;;
19280;SDS011;9774;52.034;5.342;2023-04-24T10:11:00;2.67;;;1.00;;
19280;SDS011;9774;52.034;5.342;2023-04-24T10:13:29;2.97;;;0.88;;
19280;SDS011;9774;52.034;5.342;2023-04-24T10:15:58;2.55;;;0.90;;
19280;SDS011;9774;52.034;5.342;2023-04-24T10:18:28;6.90;;;1.30;;
19280;SDS011;9774;52.034;5.342;2023-04-24T10:20:58;4.65;;;1.35;;
19280;SDS011;9774;52.034;5.342;2023-04-24T10:23:27;3.42;;;0.90;;
19280;SDS011;9774;52.034;5.342;2023-04-24T10:25:56;2.53;;;1.42;;
19280;SDS011;9774;52.034;5.342;2023-04-24T10:28:24;3.22;;;0.80;;
19280;SDS011;9774;52.034;5.342;2023-04-24T10:30:53;1.85;;;0.95;;
19280;SDS011;9774;52.034;5.342;2023-04-24T10:33:21;3.80;;;0.80;;
19280;SDS011;9774;52.034;5.342;2023-04-24T10:35:49;2.25;;;0.73;;
19280;SDS011;9774;52.034;5.342;2023-04-24T10:38:18;1.35;;;0.60;;
19280;SDS011;9774;52.034;5.342;2023-04-24T10:40:50;1.50;;;0.47;;
19280;SDS011;9774;52.034;5.342;2023-04-24T10:43:17;1.67;;;0.75;;
19280;SDS011;9774;52.034;5.342;2023-04-24T10:48:30;3.03;;;0.50;;
19280;SDS011;9774;52.034;5.342;2023-04-24T10:50:58;1.40;;;0.50;;
19280;SDS011;9774;52.034;5.342;2023-04-24T10:53:27;0.75;;;0.35;;
19280;SDS011;9774;52.034;5.342;2023-04-24T10:55:58;2.05;;;0.57;;
19280;SDS011;9774;52.034;5.342;2023-04-24T10:58:35;1.58;;;0.40;;
19280;SDS011;9774;52.034;5.342;2023-04-24T11:01:06;1.20;;;0.45;;
19280;SDS011;9774;52.034;5.342;2023-04-24T11:03:34;1.17;;;0.45;;
19280;SDS011;9774;52.034;5.342;2023-04-24T11:06:02;0.90;;;0.20;;
19280;SDS011;9774;52.034;5.342;2023-04-24T11:08:32;2.08;;;0.25;;
19280;SDS011;9774;52.034;5.342;2023-04-24T11:11:08;0.68;;;0.20;;
19280;SDS011;9774;52.034;5.342;2023-04-24T11:16:35;1.38;;;0.50;;
19280;SDS011;9774;52.034;5.342;2023-04-24T11:19:17;2.30;;;0.30;;
19280;SDS011;9774;52.034;5.342;2023-04-24T11:21:48;4.50;;;1.05;;
19280;SDS011;9774;52.034;5.342;2023-04-24T11:27:12;1.10;;;0.43;;
19280;SDS011;9774;52.034;5.342;2023-04-24T11:29:42;1.45;;;0.43;;
19280;SDS011;9774;52.034;5.342;2023-04-24T11:32:22;2.25;;;0.20;;
19280;SDS011;9774;52.034;5.342;2023-04-24T11:34:51;2.47;;;0.68;;
19280;SDS011;9774;52.034;5.342;2023-04-24T11:37:19;1.73;;;0.65;;
19280;SDS011;9774;52.034;5.342;2023-04-24T11:39:52;3.03;;;0.50;;
19280;SDS011;9774;52.034;5.342;2023-04-24T11:42:21;2.85;;;0.70;;
19280;SDS011;9774;52.034;5.342;2023-04-24T11:44:51;3.00;;;0.55;;
19280;SDS011;9774;52.034;5.342;2023-04-24T11:47:21;1.88;;;0.50;;
19280;SDS011;9774;52.034;5.342;2023-04-24T11:49:54;1.88;;;0.28;;
19280;SDS011;9774;52.034;5.342;2023-04-24T11:52:22;1.33;;;0.55;;
19280;SDS011;9774;52.034;5.342;2023-04-24T11:54:49;1.10;;;0.30;;
19280;SDS011;9774;52.034;5.342;2023-04-24T11:57:18;1.58;;;0.47;;
19280;SDS011;9774;52.034;5.342;2023-04-24T11:59:46;0.90;;;0.38;;
19280;SDS011;9774;52.034;5.342;2023-04-24T12:02:22;0.70;;;0.20;;
19280;SDS011;9774;52.034;5.342;2023-04-24T12:04:51;3.05;;;0.57;;
19280;SDS011;9774;52.034;5.342;2023-04-24T12:07:18;3.47;;;0.35;;
19280;SDS011;9774;52.034;5.342;2023-04-24T12:09:46;2.67;;;0.40;;
19280;SDS011;9774;52.034;5.342;2023-04-24T12:12:16;0.32;;;0.20;;
19280;SDS011;9774;52.034;5.342;2023-04-24T12:14:47;0.50;;;0.20;;
19280;SDS011;9774;52.034;5.342;2023-04-24T12:17:16;1.23;;;0.50;;
19280;SDS011;9774;52.034;5.342;2023-04-24T12:19:47;1.73;;;0.47;;
19280;SDS011;9774;52.034;5.342;2023-04-24T12:22:15;2.70;;;0.30;;
19280;SDS011;9774;52.034;5.342;2023-04-24T12:24:55;3.22;;;0.47;;
19280;SDS011;9774;52.034;5.342;2023-04-24T12:27:29;2.40;;;0.55;;
19280;SDS011;9774;52.034;5.342;2023-04-24T12:29:57;1.52;;;0.50;;
19280;SDS011;9774;52.034;5.342;2023-04-24T12:32:25;3.00;;;0.57;;
19280;SDS011;9774;52.034;5.342;2023-04-24T12:34:54;2.47;;;0.43;;
19280;SDS011;9774;52.034;5.342;2023-04-24T12:37:23;4.10;;;0.77;;
19280;SDS011;9774;52.034;5.342;2023-04-24T12:39:58;1.60;;;0.70;;
19280;SDS011;9774;52.034;5.342;2023-04-24T12:42:27;2.78;;;0.50;;
19280;SDS011;9774;52.034;5.342;2023-04-24T12:44:58;2.95;;;1.30;;
19280;SDS011;9774;52.034;5.342;2023-04-24T12:47:28;3.72;;;0.50;;
19280;SDS011;9774;52.034;5.342;2023-04-24T12:49:57;3.10;;;0.98;;
19280;SDS011;9774;52.034;5.342;2023-04-24T12:52:26;2.05;;;0.60;;
19280;SDS011;9774;52.034;5.342;2023-04-24T12:54:55;2.22;;;0.90;;
19280;SDS011;9774;52.034;5.342;2023-04-24T12:57:23;4.57;;;0.90;;
19280;SDS011;9774;52.034;5.342;2023-04-24T12:59:52;4.78;;;0.70;;
19280;SDS011;9774;52.034;5.342;2023-04-24T13:02:19;2.95;;;0.88;;
19280;SDS011;9774;52.034;5.342;2023-04-24T13:04:47;3.72;;;0.55;;
19280;SDS011;9774;52.034;5.342;2023-04-24T13:07:16;2.38;;;1.20;;
19280;SDS011;9774;52.034;5.342;2023-04-24T13:09:44;3.88;;;1.15;;
19280;SDS011;9774;52.034;5.342;2023-04-24T13:12:12;2.83;;;0.70;;
19280;SDS011;9774;52.034;5.342;2023-04-24T13:14:39;3.45;;;0.90;;
19280;SDS011;9774;52.034;5.342;2023-04-24T13:17:07;3.55;;;0.90;;
19280;SDS011;9774;52.034;5.342;2023-04-24T13:19:37;3.45;;;1.10;;
19280;SDS011;9774;52.034;5.342;2023-04-24T13:22:05;3.97;;;0.93;;
19280;SDS011;9774;52.034;5.342;2023-04-24T13:24:36;3.00;;;1.38;;
19280;SDS011;9774;52.034;5.342;2023-04-24T13:27:05;7.03;;;1.40;;
19280;SDS011;9774;52.034;5.342;2023-04-24T13:29:33;4.55;;;0.90;;
19280;SDS011;9774;52.034;5.342;2023-04-24T13:32:00;3.13;;;1.30;;
19280;SDS011;9774;52.034;5.342;2023-04-24T13:34:28;3.45;;;1.40;;
19280;SDS011;9774;52.034;5.342;2023-04-24T13:36:55;4.15;;;1.23;;
19280;SDS011;9774;52.034;5.342;2023-04-24T13:39:23;2.92;;;1.10;;
19280;SDS011;9774;52.034;5.342;2023-04-24T13:41:53;5.38;;;1.63;;
19280;SDS011;9774;52.034;5.342;2023-04-24T13:44:21;5.57;;;1.38;;
19280;SDS011;9774;52.034;5.342;2023-04-24T13:46:50;2.05;;;0.82;;
19280;SDS011;9774;52.034;5.342;2023-04-24T13:49:19;4.93;;;1.27;;
19280;SDS011;9774;52.034;5.342;2023-04-24T13:51:47;3.85;;;1.13;;
19280;SDS011;9774;52.034;5.342;2023-04-24T13:54:15;4.28;;;1.10;;
19280;SDS011;9774;52.034;5.342;2023-04-24T13:56:42;3.50;;;0.90;;
19280;SDS011;9774;52.034;5.342;2023-04-24T13:59:11;3.42;;;1.15;;
19280;SDS011;9774;52.034;5.342;2023-04-24T14:01:38;6.43;;;1.67;;
19280;SDS011;9774;52.034;5.342;2023-04-24T14:04:06;5.00;;;1.35;;
19280;SDS011;9774;52.034;5.342;2023-04-24T14:06:33;3.40;;;0.88;;
19280;SDS011;9774;52.034;5.342;2023-04-24T14:09:01;4.38;;;1.13;;
19280;SDS011;9774;52.034;5.342;2023-04-24T14:11:30;2.92;;;1.08;;
19280;SDS011;9774;52.034;5.342;2023-04-24T14:13:57;4.25;;;1.42;;
19280;SDS011;9774;52.034;5.342;2023-04-24T14:16:26;2.95;;;1.10;;
19280;SDS011;9774;52.034;5.342;2023-04-24T14:18:55;4.70;;;0.95;;
19280;SDS011;9774;52.034;5.342;2023-04-24T14:21:22;5.90;;;1.17;;
19280;SDS011;9774;52.034;5.342;2023-04-24T14:23:50;3.35;;;1.60;;
19280;SDS011;9774;52.034;5.342;2023-04-24T14:26:17;3.50;;;1.27;;
19280;SDS011;9774;52.034;5.342;2023-04-24T14:28:45;4.78;;;1.63;;
19280;SDS011;9774;52.034;5.342;2023-04-24T14:31:12;4.28;;;1.58;;
19280;SDS011;9774;52.034;5.342;2023-04-24T14:33:41;2.78;;;1.45;;
19280;SDS011;9774;52.034;5.342;2023-04-24T14:36:08;4.82;;;1.40;;
19280;SDS011;9774;52.034;5.342;2023-04-24T14:38:36;5.25;;;1.63;;
19280;SDS011;9774;52.034;5.342;2023-04-24T14:41:03;3.20;;;1.63;;
19280;SDS011;9774;52.034;5.342;2023-04-24T14:43:34;4.38;;;1.73;;
19280;SDS011;9774;52.034;5.342;2023-04-24T14:46:01;9.00;;;1.67;;
19280;SDS011;9774;52.034;5.342;2023-04-24T14:48:29;8.18;;;1.55;;
19280;SDS011;9774;52.034;5.342;2023-04-24T14:50:58;6.97;;;2.03;;
19280;SDS011;9774;52.034;5.342;2023-04-24T14:53:25;6.72;;;1.35;;
19280;SDS011;9774;52.034;5.342;2023-04-24T14:55:53;4.68;;;1.70;;
19280;SDS011;9774;52.034;5.342;2023-04-24T14:58:20;5.07;;;1.90;;
19280;SDS011;9774;52.034;5.342;2023-04-24T15:00:47;5.47;;;1.55;;
19280;SDS011;9774;52.034;5.342;2023-04-24T15:03:17;5.70;;;1.45;;
19280;SDS011;9774;52.034;5.342;2023-04-24T15:05:45;4.85;;;1.95;;
19280;SDS011;9774;52.034;5.342;2023-04-24T15:08:14;5.85;;;2.00;;
19280;SDS011;9774;52.034;5.342;2023-04-24T15:10:41;3.35;;;1.38;;
19280;SDS011;9774;52.034;5.342;2023-04-24T15:13:08;7.05;;;2.13;;
19280;SDS011;9774;52.034;5.342;2023-04-24T15:15:36;5.10;;;1.83;;